KBCT/BCT METAR and TAF weather

Enter ICAO airport designator
Station Type Date Time Source
KBCT METAR 2018/12/12 15:50 UTC NOAA

KBCT 121550Z 00000KT 10SM SCT050 21/11 A3027


Station Type Date Time Source
KBCT Decoded METAR 2018/12/12 15:50 UTC NOAA

Boca Raton, Boca Raton Airport, FL, United States (KBCT) 26-22-43N 080-06-28W
Dec 12, 2018 - 10:50 AM EST / 2018.12.12 1550 UTC
Wind: Calm:0
Visibility: 10 mile(s):0
Sky conditions: partly cloudy
Temperature: 69 F (21 C)
Dew Point: 51 F (11 C)
Relative Humidity: 52%
Pressure (altimeter): 30.27 in. Hg (1025 hPa)
ob: KBCT 121550Z 00000KT 10SM SCT050 21/11 A3027
cycle: 16

Station Type Date Time Source
KBCT TAF UTC NOAA

Error!


Example: see airport list